Time;durP1;ratioP1;P1;durP2;ratioP2;P2;SDS_P1;SDS_P2;PMS_P1;PMS_P2;Temp;Humidity;BMP_temperature;BMP_pressure;BME280_temperature;BME280_humidity;BME280_pressure;Samples;Min_cycle;Max_cycle;Signal;HPM_P1;HPM_P2
2022/08/29 00:00:43;;;;;;;3.50;3.20;;;;;;;20.33;67.42;97133.69;10460631;28;20488;-50
2022/08/29 00:06:03;;;;;;;4.63;3.33;;;;;;;20.33;67.38;97139.09;10460998;28;20056;-50
2022/08/29 00:11:23;;;;;;;4.07;3.75;;;;;;;20.33;67.25;97131.78;10460345;28;20459;-52
2022/08/29 00:16:42;;;;;;;4.20;3.83;;;;;;;20.34;67.33;97136.06;10470575;28;20044;-51
2022/08/29 00:22:02;;;;;;;3.78;3.47;;;;;;;20.32;67.37;97122.06;10460230;28;20489;-52
2022/08/29 00:27:22;;;;;;;3.90;3.60;;;;;;;20.33;67.36;97125.56;10458629;28;20053;-51
2022/08/29 00:32:41;;;;;;;4.07;3.67;;;;;;;20.32;67.21;97122.06;10451127;28;20489;-50
2022/08/29 00:38:03;;;;;;;4.20;3.83;;;;;;;20.32;67.18;97127.47;10460214;28;20075;-49
2022/08/29 00:43:29;;;;;;;4.20;3.90;;;;;;;20.31;67.18;97120.47;10456572;28;20111;-48
2022/08/29 00:48:52;;;;;;;4.20;3.80;;;;;;;20.32;67.09;97132.88;10459462;28;20435;-49
2022/08/29 00:54:12;;;;;;;4.47;4.07;;;;;;;20.31;67.15;97131.31;10458454;28;20057;-51
2022/08/29 00:59:37;;;;;;;4.35;3.95;;;;;;;20.30;66.97;97135.09;10458351;28;20049;-51
2022/08/29 01:04:58;;;;;;;4.15;3.85;;;;;;;20.30;66.97;97135.09;10457138;28;20060;-50
2022/08/29 01:15:57;;;;;;;4.82;4.32;;;;;;;20.30;66.96;97134.31;10451549;28;20416;-50
2022/08/29 01:21:54;;;;;;;4.22;3.92;;;;;;;20.29;66.79;97136.25;10445837;28;20056;-51
2022/08/29 01:27:13;;;;;;;4.70;4.30;;;;;;;20.30;66.85;97131.63;10440144;28;20500;-50
2022/08/29 01:32:33;;;;;;;4.47;4.15;;;;;;;20.29;66.70;97132.75;10443957;28;20057;-51
2022/08/29 01:37:53;;;;;;;4.40;4.00;;;;;;;20.29;66.68;97133.53;10456863;28;20504;-51
2022/08/29 01:43:12;;;;;;;4.40;4.00;;;;;;;20.30;66.70;97134.31;10456427;28;20447;-51
2022/08/29 01:48:31;;;;;;;4.45;4.05;;;;;;;20.28;66.73;97142.75;10457139;28;20061;-51
2022/08/29 01:53:51;;;;;;;4.40;4.00;;;;;;;20.27;66.70;97141.16;10443231;28;20056;-50
2022/08/29 01:59:13;;;;;;;4.07;3.78;;;;;;;20.28;66.63;97141.97;10443443;28;20053;-51
2022/08/29 02:04:33;;;;;;;4.50;4.10;;;;;;;20.28;66.67;97137.34;10456764;28;20072;-51
2022/08/29 02:09:53;;;;;;;4.75;4.35;;;;;;;20.27;66.58;97135.75;10464445;28;20041;-51
2022/08/29 02:15:15;;;;;;;4.70;4.20;;;;;;;20.27;66.67;97130.34;10456312;28;20052;-50
2022/08/29 02:20:35;;;;;;;4.68;4.28;;;;;;;20.27;66.73;97137.69;10455615;28;20483;-51
2022/08/29 02:25:54;;;;;;;4.57;4.18;;;;;;;20.27;66.68;97133.06;10453580;28;20519;-51
2022/08/29 02:31:13;;;;;;;4.75;4.35;;;;;;;20.27;66.67;97137.69;10455386;28;20053;-51
2022/08/29 02:36:33;;;;;;;4.60;4.20;;;;;;;20.27;66.58;97135.75;10455801;28;20048;-50
2022/08/29 02:41:53;;;;;;;4.28;3.88;;;;;;;20.26;66.66;97136.06;10455606;28;20041;-50
2022/08/29 02:47:13;;;;;;;4.75;4.35;;;;;;;20.27;66.58;97137.69;10441990;28;20057;-51
2022/08/29 02:52:33;;;;;;;4.35;3.95;;;;;;;20.25;66.71;97138.00;10454995;28;20102;-50
2022/08/29 02:57:53;;;;;;;4.07;3.78;;;;;;;20.25;66.56;97139.91;10454308;28;20518;-51
2022/08/29 03:03:12;;;;;;;4.38;4.05;;;;;;;20.25;66.49;97138.00;10456192;28;20098;-50
2022/08/29 03:08:32;;;;;;;4.30;4.00;;;;;;;20.26;66.42;97130.66;10458452;28;20033;-52
2022/08/29 03:13:51;;;;;;;4.13;3.83;;;;;;;20.25;66.46;97131.78;10463446;28;20049;-51
2022/08/29 03:19:10;;;;;;;4.18;3.78;;;;;;;20.26;66.42;97130.66;10462795;28;20091;-52
2022/08/29 03:24:30;;;;;;;4.05;3.75;;;;;;;20.25;66.33;97137.22;10449781;28;20508;-51
2022/08/29 03:29:49;;;;;;;4.10;3.80;;;;;;;20.24;66.39;97135.59;10462425;28;20061;-51
2022/08/29 03:35:09;;;;;;;4.18;3.88;;;;;;;20.24;66.22;97127.50;10462371;28;20053;-51
2022/08/29 03:40:29;;;;;;;4.05;3.65;;;;;;;20.24;66.33;97136.38;10475509;28;20053;-52
2022/08/29 03:45:49;;;;;;;4.22;3.90;;;;;;;20.21;66.23;97131.63;10450882;28;20048;-50
2022/08/29 03:51:09;;;;;;;3.88;3.58;;;;;;;20.22;66.11;97138.63;10461706;28;20400;-52
2022/08/29 03:56:28;;;;;;;4.20;3.90;;;;;;;20.21;66.04;97139.75;10474715;28;20098;-51
2022/08/29 04:01:48;;;;;;;3.83;3.53;;;;;;;20.22;66.23;97159.47;10460925;28;20489;-51
2022/08/29 04:07:08;;;;;;;4.10;3.80;;;;;;;20.22;66.24;97151.34;10460297;28;20091;-51
2022/08/29 04:12:28;;;;;;;4.10;3.70;;;;;;;20.21;66.00;97152.47;10460193;28;20083;-51
2022/08/29 04:17:49;;;;;;;4.03;3.70;;;;;;;20.20;66.08;97151.69;10459923;28;20122;-52
2022/08/29 04:23:11;;;;;;;4.10;3.70;;;;;;;20.21;65.96;97157.88;10449018;28;20110;-49
2022/08/29 04:28:31;;;;;;;4.07;3.78;;;;;;;20.20;66.00;97162.50;10459623;28;20519;-52
2022/08/29 04:33:50;;;;;;;3.80;3.50;;;;;;;20.20;66.05;97162.50;10459362;28;20045;-51
2022/08/29 04:39:10;;;;;;;3.88;3.58;;;;;;;20.20;66.01;97172.53;10460453;28;20048;-51
2022/08/29 04:44:31;;;;;;;3.67;3.38;;;;;;;20.20;65.96;97181.44;10459269;28;20049;-51
2022/08/29 04:49:54;;;;;;;3.90;3.60;;;;;;;20.20;65.94;97188.75;10459574;28;20056;-52
2022/08/29 04:55:15;;;;;;;4.97;3.80;;;;;;;20.20;65.93;97196.88;10459076;28;20056;-50
2022/08/29 05:00:36;;;;;;;4.18;3.88;;;;;;;20.19;65.94;97201.50;10458257;28;20491;-50
2022/08/29 05:05:56;;;;;;;4.30;3.80;;;;;;;20.19;65.93;97201.50;10458932;28;20055;-51
2022/08/29 05:11:18;;;;;;;4.63;4.20;;;;;;;20.20;65.98;97205.78;10458792;28;20107;-51
2022/08/29 05:16:39;;;;;;;3.92;3.63;;;;;;;20.20;65.98;97210.41;10460752;28;20044;-51
2022/08/29 05:21:58;;;;;;;3.80;3.50;;;;;;;20.20;65.92;97211.19;10458249;28;20060;-51
2022/08/29 05:27:20;;;;;;;4.07;3.78;;;;;;;20.19;65.85;97219.63;10471473;28;20570;-50
2022/08/29 05:32:40;;;;;;;4.20;3.80;;;;;;;20.19;65.82;97231.25;10444645;28;20057;-52
2022/08/29 05:38:00;;;;;;;4.30;4.00;;;;;;;20.18;65.73;97229.66;10456622;28;20527;-51
2022/08/29 05:43:20;;;;;;;3.53;3.22;;;;;;;20.19;65.66;97235.84;10457341;28;20057;-52
2022/08/29 05:48:44;;;;;;;3.95;3.65;;;;;;;20.19;65.73;97241.25;10456772;28;20055;-51
2022/08/29 05:54:03;;;;;;;3.78;3.47;;;;;;;20.20;65.64;97235.53;10456855;28;20049;-52
2022/08/29 05:59:23;;;;;;;4.32;3.85;;;;;;;20.20;65.58;97254.47;10456699;28;20049;-51
2022/08/29 06:04:42;;;;;;;3.70;3.40;;;;;;;20.19;65.62;97246.66;10467769;28;20045;-52
2022/08/29 06:10:05;;;;;;;4.13;3.75;;;;;;;20.19;65.56;97250.19;10468813;28;20048;-50
2022/08/29 06:15:27;;;;;;;3.60;3.35;;;;;;;20.19;65.69;97252.91;10456233;28;20404;-50
2022/08/29 06:20:46;;;;;;;4.18;3.58;;;;;;;20.19;65.66;97252.06;10455855;28;20053;-50
2022/08/29 06:26:07;;;;;;;4.07;3.55;;;;;;;20.20;65.72;97259.09;10442792;28;20052;-51
2022/08/29 06:31:28;;;;;;;4.25;3.88;;;;;;;20.20;65.96;97254.47;10454714;28;20420;-51
2022/08/29 06:36:47;;;;;;;3.75;3.45;;;;;;;20.19;65.79;97252.91;10455156;28;20053;-49
2022/08/29 06:42:06;;;;;;;3.85;3.55;;;;;;;20.19;65.79;97258.31;10468480;28;20045;-50
2022/08/29 06:47:26;;;;;;;3.72;3.42;;;;;;;20.20;65.81;97253.69;10455323;28;20106;-50
2022/08/29 06:52:45;;;;;;;3.63;3.33;;;;;;;20.19;65.88;97258.31;10454740;28;20049;-50
2022/08/29 06:58:05;;;;;;;3.80;3.50;;;;;;;20.19;65.88;97263.72;10468293;28;20060;-50
2022/08/29 07:03:24;;;;;;;3.75;3.45;;;;;;;20.19;65.87;97263.72;10455369;28;20053;-50
2022/08/29 07:08:45;;;;;;;4.00;3.70;;;;;;;20.20;65.94;97281.53;10468554;28;20037;-51
2022/08/29 07:14:05;;;;;;;3.80;3.50;;;;;;;20.20;65.93;97281.53;10454268;28;20055;-50
2022/08/29 07:19:25;;;;;;;4.00;3.60;;;;;;;20.20;65.90;97286.94;10455050;28;20053;-51
2022/08/29 07:24:44;;;;;;;3.88;3.30;;;;;;;20.21;66.04;97287.72;10455015;28;20057;-51
2022/08/29 07:30:05;;;;;;;5.18;3.70;;;;;;;20.19;66.16;97285.34;10463955;28;20057;-50
2022/08/29 07:35:24;;;;;;;3.67;3.38;;;;;;;20.20;66.04;97288.84;10454328;28;20381;-51
2022/08/29 07:40:44;;;;;;;4.35;3.42;;;;;;;20.20;66.13;97292.34;10467798;28;20099;-51
2022/08/29 07:46:09;;;;;;;3.72;3.42;;;;;;;20.20;66.16;97288.84;10454283;28;20064;-51
2022/08/29 07:51:29;;;;;;;3.40;3.08;;;;;;;20.20;66.22;97296.97;10457090;28;20127;-51
2022/08/29 07:56:51;;;;;;;3.63;3.33;;;;;;;20.21;66.28;97301.25;10461199;28;20056;-51
2022/08/29 08:02:10;;;;;;;3.78;3.47;;;;;;;20.19;66.24;97304.28;10451482;28;20052;-51
2022/08/29 08:07:31;;;;;;;3.92;3.53;;;;;;;20.20;66.18;97308.56;10474547;28;20048;-50
2022/08/29 08:12:51;;;;;;;3.78;3.47;;;;;;;20.20;66.27;97305.88;10474081;28;20126;-50
2022/08/29 08:18:10;;;;;;;3.78;3.47;;;;;;;20.19;66.23;97304.28;10448652;28;20067;-51
2022/08/29 08:23:30;;;;;;;3.47;3.17;;;;;;;20.20;66.30;97308.56;10473892;28;20055;-49
2022/08/29 08:28:49;;;;;;;3.47;3.17;;;;;;;20.21;66.27;97312.06;10472839;28;20040;-50
2022/08/29 08:34:10;;;;;;;3.65;3.30;;;;;;;20.22;66.29;97328.00;10459950;28;20105;-51
2022/08/29 08:39:29;;;;;;;3.40;3.10;;;;;;;20.21;66.36;97322.88;10450021;28;20488;-49
2022/08/29 08:45:02;;;;;;;3.67;3.38;;;;;;;20.21;66.39;97318.31;10468380;28;20060;-50
2022/08/29 08:50:48;;;;;;;3.47;3.17;;;;;;;20.21;66.34;97317.47;10459385;28;20049;-51
2022/08/29 08:56:34;;;;;;;4.35;3.70;;;;;;;20.22;66.23;97322.59;10459671;28;20049;-51
2022/08/29 09:02:11;;;;;;;3.30;3.03;;;;;;;20.22;66.35;97316.38;10446972;28;20056;-51
2022/08/29 09:07:50;;;;;;;3.47;3.17;;;;;;;20.21;66.34;97314.78;10459236;28;20049;-51
2022/08/29 09:13:22;;;;;;;3.50;3.20;;;;;;;20.22;66.33;97317.16;10458944;28;20053;-52
2022/08/29 09:18:43;;;;;;;3.45;3.15;;;;;;;20.21;66.41;97312.88;10458677;28;20194;-51
2022/08/29 09:24:05;;;;;;;3.35;3.05;;;;;;;20.21;66.33;97309.38;10471716;28;20051;-50
2022/08/29 09:29:27;;;;;;;3.53;3.22;;;;;;;20.22;66.42;97310.97;10444968;28;20064;-51
2022/08/29 09:34:48;;;;;;;3.47;3.17;;;;;;;20.21;66.35;97315.59;10457658;28;20374;-50
2022/08/29 09:40:11;;;;;;;3.03;2.83;;;;;;;20.22;66.45;97319.09;10456693;28;20431;-49
2022/08/29 09:45:30;;;;;;;3.60;3.30;;;;;;;20.22;66.41;97321.78;10470725;28;20416;-51
2022/08/29 09:50:50;;;;;;;3.13;2.92;;;;;;;20.22;66.48;97321.78;10456939;28;20057;-52
2022/08/29 09:56:18;;;;;;;3.80;3.40;;;;;;;20.23;66.42;97318.78;10470222;28;20047;-50
2022/08/29 10:01:38;;;;;;;3.25;2.95;;;;;;;20.23;66.41;97317.97;10455293;28;20049;-51
2022/08/29 10:07:08;;;;;;;3.50;3.20;;;;;;;20.23;66.46;97320.66;10455650;28;20053;-51
2022/08/29 10:12:44;;;;;;;3.40;3.10;;;;;;;20.23;66.41;97323.38;10455604;28;20076;-50
2022/08/29 10:18:23;;;;;;;3.45;3.15;;;;;;;20.22;66.55;97325.28;10457233;28;20120;-50
2022/08/29 10:23:57;;;;;;;3.17;2.88;;;;;;;20.23;66.53;97316.06;10468303;28;20044;-50
2022/08/29 10:29:38;;;;;;;3.22;2.92;;;;;;;20.22;66.51;97314.47;10454938;28;20065;-52
2022/08/29 10:35:13;;;;;;;3.28;2.97;;;;;;;20.23;66.48;97312.56;10455525;28;20045;-50
2022/08/29 10:40:41;;;;;;;3.13;2.88;;;;;;;20.23;66.59;97307.97;10455370;28;20460;-51
2022/08/29 10:46:31;;;;;;;3.67;2.90;;;;;;;20.23;66.47;97307.97;10446440;28;20057;-51
2022/08/29 10:52:06;;;;;;;3.28;2.95;;;;;;;20.23;66.51;97304.44;10455315;28;20041;-49
2022/08/29 10:57:45;;;;;;;3.30;3.00;;;;;;;20.23;66.46;97297.13;10459195;28;20393;-49
2022/08/29 11:03:26;;;;;;;3.25;2.75;;;;;;;20.23;66.54;97291.72;10468554;28;20051;-50
2022/08/29 11:08:54;;;;;;;3.17;2.90;;;;;;;20.24;66.50;97295.22;10445842;28;20049;-50
2022/08/29 11:14:34;;;;;;;3.70;3.08;;;;;;;20.24;66.57;97292.50;10467394;28;20440;-50
2022/08/29 11:20:01;;;;;;;2.85;2.65;;;;;;;20.23;66.45;97275.50;10444065;28;20060;-50
2022/08/29 11:25:21;;;;;;;3.35;2.80;;;;;;;20.24;66.56;97279.00;10457542;28;20052;-51
2022/08/29 11:30:48;;;;;;;3.13;2.75;;;;;;;20.25;66.53;97277.88;10470108;28;20049;-51
2022/08/29 11:36:29;;;;;;;3.60;3.00;;;;;;;20.26;66.56;97288.38;10492098;28;20041;-50
2022/08/29 11:41:50;;;;;;;2.90;2.70;;;;;;;20.25;66.55;97286.78;10461983;28;20489;-51
2022/08/29 11:47:39;;;;;;;2.95;2.75;;;;;;;20.24;66.57;97287.88;10461369;28;20063;-51
2022/08/29 11:53:05;;;;;;;2.83;2.63;;;;;;;20.25;66.61;97275.97;10460808;28;20076;-51
2022/08/29 11:58:24;;;;;;;3.47;2.72;;;;;;;20.26;66.46;97268.63;10460483;28;20076;-50
2022/08/29 12:03:44;;;;;;;3.13;2.83;;;;;;;20.25;66.52;97278.69;10450448;28;20071;-50
2022/08/29 12:09:13;;;;;;;3.05;2.80;;;;;;;20.25;66.50;97281.38;10461304;28;20057;-50
2022/08/29 12:14:33;;;;;;;3.08;2.85;;;;;;;20.25;66.55;97273.25;10474454;28;20052;-51
2022/08/29 12:19:56;;;;;;;3.08;2.83;;;;;;;20.27;66.50;97271.03;10450110;28;20049;-50
2022/08/29 12:25:21;;;;;;;2.97;2.63;;;;;;;20.28;66.57;97261.00;10460605;28;20056;-51
2022/08/29 12:30:45;;;;;;;2.95;2.75;;;;;;;20.27;66.62;97265.63;10460690;28;20381;-51
2022/08/29 12:36:26;;;;;;;3.20;2.67;;;;;;;20.27;66.63;97256.72;10471628;28;20110;-52
2022/08/29 12:42:00;;;;;;;3.00;2.80;;;;;;;20.26;66.61;97258.59;10460564;28;20098;-50
2022/08/29 12:47:26;;;;;;;3.00;2.70;;;;;;;20.27;66.75;97260.22;10447986;28;20114;-50
2022/08/29 12:53:02;;;;;;;2.63;2.42;;;;;;;20.28;66.71;97250.19;10458334;28;20468;-51
2022/08/29 12:58:39;;;;;;;2.70;2.50;;;;;;;20.29;66.61;97236.34;10472629;28;20102;-50
2022/08/29 13:04:03;;;;;;;2.88;2.53;;;;;;;20.29;66.74;97235.56;10450140;28;20106;-50
2022/08/29 13:09:44;;;;;;;3.22;2.55;;;;;;;20.29;66.71;97236.34;10458406;28;20504;-50
2022/08/29 13:15:07;;;;;;;3.08;2.80;;;;;;;20.30;66.75;97234.44;10448016;28;20055;-49
2022/08/29 13:20:47;;;;;;;2.97;2.60;;;;;;;20.29;66.74;97225.53;10458655;28;20080;-52
2022/08/29 13:26:10;;;;;;;2.83;2.63;;;;;;;20.29;66.71;97228.22;10444759;28;20053;-49
2022/08/29 13:31:32;;;;;;;3.60;2.88;;;;;;;20.29;66.70;97212.00;10457094;28;20061;-50
2022/08/29 13:36:58;;;;;;;2.75;2.53;;;;;;;20.29;66.65;97212.00;10471068;28;20041;-50
2022/08/29 13:42:22;;;;;;;2.70;2.50;;;;;;;20.31;66.83;97203.56;10469916;28;20045;-51
2022/08/29 13:47:50;;;;;;;2.50;2.30;;;;;;;20.31;66.89;97200.84;10456791;28;20049;-52
2022/08/29 13:53:09;;;;;;;2.70;2.50;;;;;;;20.31;66.63;97198.94;10455927;28;20056;-50
2022/08/29 13:58:29;;;;;;;2.80;2.60;;;;;;;20.30;66.91;97202.75;10456728;28;20067;-51
2022/08/29 14:03:49;;;;;;;2.90;2.60;;;;;;;20.32;66.76;97197.03;10456741;28;20409;-48
2022/08/29 14:09:21;;;;;;;2.72;2.45;;;;;;;20.31;66.87;97201.66;10443695;28;20064;-52
2022/08/29 14:14:42;;;;;;;2.70;2.47;;;;;;;20.31;66.90;97190.81;10454944;28;20060;-52
2022/08/29 14:20:03;;;;;;;2.50;2.30;;;;;;;20.32;66.83;97181.56;10467157;28;20044;-47
2022/08/29 14:25:22;;;;;;;3.00;2.70;;;;;;;20.32;66.99;97184.28;10456358;28;20053;-51
2022/08/29 14:30:43;;;;;;;2.55;2.35;;;;;;;20.33;66.92;97172.34;10455400;28;20052;-51
2022/08/29 14:36:02;;;;;;;2.80;2.58;;;;;;;20.35;66.81;97164.72;10443671;28;20056;-50
2022/08/29 14:41:22;;;;;;;2.90;2.63;;;;;;;20.35;66.96;97169.34;10469324;28;20033;-50
2022/08/29 14:46:41;;;;;;;2.55;2.35;;;;;;;20.35;66.97;97170.13;10454575;28;20060;-50
2022/08/29 14:52:01;;;;;;;2.42;2.22;;;;;;;20.37;67.02;97159.00;10455168;28;20052;-50
2022/08/29 14:57:20;;;;;;;2.83;2.63;;;;;;;20.38;67.04;97160.56;10454605;28;20196;-50
2022/08/29 15:02:40;;;;;;;2.47;2.28;;;;;;;20.40;66.97;97154.84;10462206;28;20040;-50
2022/08/29 15:08:01;;;;;;;2.60;2.40;;;;;;;20.40;66.97;97155.63;10464001;28;20057;-50
2022/08/29 15:13:20;;;;;;;2.65;2.45;;;;;;;20.41;67.03;97156.44;10464951;28;21404;-50
2022/08/29 15:18:40;;;;;;;2.47;2.28;;;;;;;20.40;67.02;97147.50;10463102;28;20443;-49
2022/08/29 15:23:59;;;;;;;2.35;2.15;;;;;;;20.42;66.99;97141.78;10462930;28;20053;-49
2022/08/29 15:29:18;;;;;;;2.65;2.45;;;;;;;20.44;66.91;97144.97;10462498;28;20057;-49
2022/08/29 15:34:39;;;;;;;2.45;2.25;;;;;;;20.44;67.05;97143.03;10462685;28;20045;-51
2022/08/29 15:39:58;;;;;;;2.50;2.30;;;;;;;20.45;67.00;97136.53;10475641;28;20494;-50
2022/08/29 15:45:18;;;;;;;2.33;2.13;;;;;;;20.47;66.89;97147.03;10462082;28;20095;-51
2022/08/29 15:50:37;;;;;;;2.55;2.35;;;;;;;20.47;67.03;97144.31;10450793;28;20053;-50
2022/08/29 15:55:57;;;;;;;2.50;2.20;;;;;;;20.48;66.91;97135.06;10461127;28;20064;-50
2022/08/29 16:01:17;;;;;;;2.63;2.42;;;;;;;20.47;67.02;97133.50;10460997;28;20053;-50
2022/08/29 16:06:37;;;;;;;2.60;2.40;;;;;;;20.46;66.98;97137.31;10461153;28;20056;-49
2022/08/29 16:11:57;;;;;;;2.58;2.38;;;;;;;20.46;67.07;97135.38;10459760;28;20179;-50
2022/08/29 16:17:16;;;;;;;2.70;2.50;;;;;;;20.46;66.94;97138.09;10460955;28;20049;-50
2022/08/29 16:22:38;;;;;;;2.38;2.08;;;;;;;20.45;67.06;97138.44;10461012;28;20045;-51
2022/08/29 16:27:59;;;;;;;2.30;2.10;;;;;;;20.45;67.09;97135.75;10449437;28;20056;-51
2022/08/29 16:33:18;;;;;;;2.40;2.20;;;;;;;20.45;66.89;97139.22;10459585;28;20060;-50
2022/08/29 16:38:38;;;;;;;2.80;2.03;;;;;;;20.45;66.96;97143.84;10460436;28;20052;-51
2022/08/29 16:43:58;;;;;;;2.10;2.00;;;;;;;20.45;67.05;97144.66;10458292;28;20405;-50
2022/08/29 16:49:17;;;;;;;2.50;2.30;;;;;;;20.45;66.97;97141.16;10459795;28;20046;-51
2022/08/29 16:54:37;;;;;;;2.55;2.35;;;;;;;20.44;67.00;97142.25;10459556;28;20049;-49
2022/08/29 16:59:56;;;;;;;2.58;2.35;;;;;;;20.45;66.96;97151.97;10458992;28;20060;-50
2022/08/29 17:05:17;;;;;;;2.40;2.20;;;;;;;20.44;67.21;97144.97;10469605;28;20036;-51
2022/08/29 17:21:22;;;;;;;2.80;2.58;;;;;;;20.43;66.99;97160.41;10445512;28;20122;-50
2022/08/29 17:26:43;;;;;;;2.35;2.15;;;;;;;20.44;66.96;97156.56;10458451;28;20049;-51
2022/08/29 17:32:05;;;;;;;2.72;2.45;;;;;;;20.44;67.03;97161.19;10461954;28;20063;-50
2022/08/29 17:37:25;;;;;;;2.78;2.40;;;;;;;20.43;67.10;97154.22;10457500;28;20509;-51
2022/08/29 17:42:46;;;;;;;2.58;2.38;;;;;;;20.43;67.01;97167.75;10457263;28;20060;-52
2022/08/29 17:48:06;;;;;;;3.15;2.40;;;;;;;20.43;67.18;97170.44;10456828;28;20052;-50
2022/08/29 17:53:26;;;;;;;2.60;2.40;;;;;;;20.42;67.02;97172.34;10469411;28;20110;-50
2022/08/29 17:58:46;;;;;;;2.85;2.55;;;;;;;20.42;67.07;97171.53;10470204;28;20044;-52
2022/08/29 18:04:05;;;;;;;2.50;2.30;;;;;;;20.43;66.93;97175.84;10457327;28;20094;-51
2022/08/29 18:09:27;;;;;;;2.63;2.42;;;;;;;20.42;66.92;97176.97;10469788;28;20045;-50
2022/08/29 18:14:47;;;;;;;2.45;2.20;;;;;;;20.43;67.06;97186.69;10456892;28;20041;-50
2022/08/29 18:20:08;;;;;;;2.60;2.40;;;;;;;20.42;66.96;97188.56;10455850;28;20056;-51
2022/08/29 18:25:28;;;;;;;2.45;2.25;;;;;;;20.42;66.84;97198.59;10469695;28;20489;-50
2022/08/29 18:30:48;;;;;;;2.53;2.20;;;;;;;20.42;66.98;97193.19;10463270;28;20049;-49
2022/08/29 18:36:09;;;;;;;3.28;2.50;;;;;;;20.41;66.89;97200.53;10445220;28;20049;-51
2022/08/29 18:41:28;;;;;;;2.35;2.15;;;;;;;20.41;66.75;97202.44;10455089;28;20451;-51
2022/08/29 18:46:48;;;;;;;2.40;2.20;;;;;;;20.41;66.89;97200.53;10454491;28;20053;-51
2022/08/29 18:52:08;;;;;;;2.80;2.25;;;;;;;20.41;66.86;97199.75;10457123;28;20045;-50
2022/08/29 18:57:28;;;;;;;2.40;2.20;;;;;;;20.40;66.82;97204.34;10453654;28;20500;-52
2022/08/29 19:02:49;;;;;;;2.80;2.42;;;;;;;20.41;66.68;97205.94;10455060;28;20132;-50
2022/08/29 19:08:10;;;;;;;2.72;2.53;;;;;;;20.41;66.63;97215.97;10454280;28;20049;-51
2022/08/29 19:13:30;;;;;;;2.67;2.30;;;;;;;20.40;66.65;97230.59;10455237;28;20230;-50
2022/08/29 19:18:51;;;;;;;2.28;2.00;;;;;;;20.41;66.44;97232.22;10455038;28;20489;-51
2022/08/29 19:24:10;;;;;;;2.80;2.08;;;;;;;20.40;66.63;97225.97;10454039;28;20041;-52
2022/08/29 19:29:30;;;;;;;2.25;2.15;;;;;;;20.40;66.68;97228.69;10454272;28;20210;-50
2022/08/29 19:34:50;;;;;;;2.67;2.47;;;;;;;20.39;66.56;97237.94;10454396;28;20110;-51
2022/08/29 19:40:13;;;;;;;2.58;2.38;;;;;;;20.40;66.40;97238.72;10449773;28;20055;-51
2022/08/29 19:45:32;;;;;;;2.90;2.40;;;;;;;20.39;66.46;97234.44;10469296;28;20393;-49
2022/08/29 19:50:52;;;;;;;2.25;1.95;;;;;;;20.40;66.57;97241.44;10475276;28;20041;-51
2022/08/29 19:56:13;;;;;;;2.55;2.20;;;;;;;20.39;66.52;97239.84;10475092;28;20380;-48
2022/08/29 20:01:32;;;;;;;3.15;2.30;;;;;;;20.39;66.42;97250.69;10462055;28;20089;-52
2022/08/29 20:06:52;;;;;;;2.67;2.47;;;;;;;20.38;66.42;97255.28;10449946;28;20057;-49
2022/08/29 20:12:12;;;;;;;3.10;2.50;;;;;;;20.39;66.33;97258.78;10460708;28;20045;-50
2022/08/29 20:17:33;;;;;;;2.30;2.10;;;;;;;20.38;66.16;97260.69;10461334;28;20492;-49
2022/08/29 20:22:52;;;;;;;3.00;2.45;;;;;;;20.39;66.29;97269.63;10460919;28;20049;-50
2022/08/29 20:28:13;;;;;;;2.35;2.15;;;;;;;20.38;66.24;97268.00;10460069;28;20389;-50
2022/08/29 20:33:33;;;;;;;2.28;2.08;;;;;;;20.40;66.24;97276.59;10459739;28;20064;-51
2022/08/29 20:38:53;;;;;;;2.50;2.10;;;;;;;20.38;66.17;97289.66;10460373;28;20137;-51
2022/08/29 20:44:16;;;;;;;2.63;2.20;;;;;;;20.38;66.18;97293.16;10469850;28;20140;-51
2022/08/29 20:49:37;;;;;;;2.72;2.38;;;;;;;20.38;66.23;97284.25;10459681;28;20049;-52
2022/08/29 20:54:56;;;;;;;2.65;2.40;;;;;;;20.38;66.17;97292.38;10459608;28;20064;-50
2022/08/29 21:00:18;;;;;;;2.38;2.17;;;;;;;20.38;66.02;97297.78;10458561;28;20511;-52
2022/08/29 21:05:41;;;;;;;2.42;2.22;;;;;;;20.38;66.04;97300.47;10459473;28;20067;-49
2022/08/29 21:11:02;;;;;;;2.67;2.30;;;;;;;20.38;66.01;97305.91;10459117;28;20049;-52
2022/08/29 21:16:21;;;;;;;2.47;2.13;;;;;;;20.37;66.17;97299.69;10458722;28;20049;-51
2022/08/29 21:21:41;;;;;;;2.38;2.00;;;;;;;20.38;65.90;97303.19;10471434;28;20040;-47
2022/08/29 21:27:01;;;;;;;2.63;2.42;;;;;;;20.37;65.79;97294.28;10457646;28;20061;-50
2022/08/29 21:32:21;;;;;;;2.40;2.20;;;;;;;20.36;65.87;97295.38;10461093;28;20059;-53
2022/08/29 21:37:40;;;;;;;2.50;2.10;;;;;;;20.37;65.86;97307.03;10447043;28;20091;-50
2022/08/29 21:43:00;;;;;;;2.40;2.20;;;;;;;20.35;65.73;97296.50;10470992;28;20048;-52
2022/08/29 21:48:20;;;;;;;2.25;2.03;;;;;;;20.34;65.81;97295.69;10457562;28;20194;-51
2022/08/29 21:53:39;;;;;;;2.90;2.10;;;;;;;20.35;65.73;97296.50;10457017;28;20049;-51
2022/08/29 21:59:00;;;;;;;3.33;2.10;;;;;;;20.36;65.67;97298.09;10457034;28;20136;-49
2022/08/29 22:04:19;;;;;;;3.00;2.28;;;;;;;20.35;65.57;97294.59;10456637;28;20053;-50
2022/08/29 22:09:39;;;;;;;2.90;2.13;;;;;;;20.35;65.63;97291.88;10455887;28;20057;-50
2022/08/29 22:20:37;;;;;;;2.70;1.90;;;;;;;20.35;65.48;97301.91;10456277;28;20053;-51
2022/08/29 22:25:57;;;;;;;3.45;2.10;;;;;;;20.33;65.52;97294.13;10455132;28;20071;-51
2022/08/29 22:31:17;;;;;;;5.75;2.28;;;;;;;20.33;65.49;97293.31;10455323;28;20063;-49
2022/08/29 22:36:37;;;;;;;3.13;2.20;;;;;;;20.32;65.46;97300.63;10455533;28;20500;-51
2022/08/29 22:41:56;;;;;;;2.70;2.10;;;;;;;20.34;65.34;97292.19;10455800;28;20053;-50
2022/08/29 22:47:16;;;;;;;2.38;2.13;;;;;;;20.34;65.33;97300.31;10442776;28;20497;-50
2022/08/29 22:52:36;;;;;;;2.30;2.10;;;;;;;20.33;65.37;97294.13;10455294;28;20161;-51
2022/08/29 22:57:55;;;;;;;2.35;2.13;;;;;;;20.34;65.36;97293.00;10455546;28;20079;-49
2022/08/29 23:03:14;;;;;;;2.20;2.00;;;;;;;20.33;65.31;97296.03;10454997;28;20049;-53
2022/08/29 23:08:34;;;;;;;3.13;2.10;;;;;;;20.32;65.34;97302.53;10444438;28;20052;-51
2022/08/29 23:13:54;;;;;;;4.32;1.92;;;;;;;20.32;65.28;97289.00;10454266;28;20052;-51
2022/08/29 23:19:14;;;;;;;2.25;1.77;;;;;;;20.33;65.28;97293.31;10454896;28;20056;-50
2022/08/29 23:24:33;;;;;;;2.30;2.10;;;;;;;20.32;65.22;97300.63;10476456;28;20412;-50
2022/08/29 23:29:53;;;;;;;2.20;2.00;;;;;;;20.32;65.19;97305.25;10472448;28;20401;-48
2022/08/29 23:35:12;;;;;;;3.50;1.92;;;;;;;20.31;65.26;97299.03;10462419;28;20049;-52
2022/08/29 23:40:32;;;;;;;2.50;2.05;;;;;;;20.30;65.15;97297.44;10462504;28;20057;-50
2022/08/29 23:45:52;;;;;;;2.35;2.15;;;;;;;20.31;65.16;97287.44;10461974;28;20048;-50
2022/08/29 23:51:13;;;;;;;3.08;2.10;;;;;;;20.31;65.10;97282.81;10462078;28;20053;-51
2022/08/29 23:56:32;;;;;;;2.05;1.83;;;;;;;20.30;65.10;97283.91;10461907;28;20052;-51
